createdAt,value
2018-09-10T00:01:05.273Z,99.90
2018-09-10T00:03:33.648Z,99.90
2018-09-10T00:06:02.774Z,99.90
2018-09-10T00:08:31.196Z,99.90
2018-09-10T00:10:59.589Z,99.90
2018-09-10T00:13:27.953Z,99.90
2018-09-10T00:15:56.352Z,99.90
2018-09-10T00:18:24.700Z,99.90
2018-09-10T00:20:53.104Z,99.90
2018-09-10T00:23:21.607Z,99.90
2018-09-10T00:25:49.986Z,99.90
2018-09-10T00:28:18.849Z,99.90
2018-09-10T00:30:47.282Z,99.90
2018-09-10T00:33:15.617Z,99.90
2018-09-10T00:35:44.001Z,99.90
2018-09-10T00:38:12.446Z,99.90
2018-09-10T00:40:40.860Z,99.90
2018-09-10T00:43:09.248Z,99.90
2018-09-10T00:45:37.612Z,99.90
2018-09-10T00:48:06.004Z,99.90
2018-09-10T00:50:34.385Z,99.90
2018-09-10T00:53:03.668Z,99.90
2018-09-10T00:55:32.098Z,99.90
2018-09-10T00:58:00.485Z,99.90
2018-09-10T01:00:28.869Z,99.90
2018-09-10T01:02:57.333Z,99.90
2018-09-10T01:05:25.721Z,99.90
2018-09-10T01:07:54.099Z,99.90
2018-09-10T01:10:22.549Z,99.90
2018-09-10T01:12:50.941Z,99.90
2018-09-10T01:15:19.314Z,99.90
2018-09-10T01:17:47.745Z,99.90
2018-09-10T01:20:16.136Z,99.90
2018-09-10T01:22:44.521Z,99.90
2018-09-10T01:25:12.972Z,99.90
2018-09-10T01:27:41.329Z,99.90
2018-09-10T01:30:09.726Z,99.90
2018-09-10T01:32:38.166Z,99.90
2018-09-10T01:35:07.428Z,99.90
2018-09-10T01:37:36.262Z,99.90
2018-09-10T01:40:04.798Z,99.90
2018-09-10T01:42:33.329Z,99.90
2018-09-10T01:45:02.193Z,99.90
2018-09-10T01:47:30.560Z,99.90
2018-09-10T01:49:58.964Z,99.90
2018-09-10T01:52:27.985Z,99.90
2018-09-10T01:54:56.463Z,99.90
2018-09-10T01:57:24.870Z,99.90
2018-09-10T01:59:53.269Z,99.90
2018-09-10T02:02:21.610Z,99.90
2018-09-10T02:04:50.090Z,99.90
2018-09-10T02:07:18.633Z,99.90
2018-09-10T02:09:46.996Z,99.90
2018-09-10T02:12:20.644Z,99.90
2018-09-10T02:14:49.182Z,99.90
2018-09-10T02:17:17.633Z,99.90
2018-09-10T02:19:46.209Z,99.90
2018-09-10T02:22:14.602Z,99.90
2018-09-10T02:24:42.983Z,99.90
2018-09-10T02:27:11.414Z,99.90
2018-09-10T02:29:39.806Z,99.90
2018-09-10T02:32:08.253Z,99.90
2018-09-10T02:34:36.647Z,99.90
2018-09-10T02:37:05.392Z,99.90
2018-09-10T02:39:33.780Z,99.90
2018-09-10T02:42:02.183Z,99.90
2018-09-10T02:44:30.650Z,99.90
2018-09-10T02:46:59.008Z,99.90
2018-09-10T02:49:27.413Z,99.90
2018-09-10T02:51:55.892Z,99.90
2018-09-10T02:54:24.248Z,99.90
2018-09-10T02:56:52.644Z,99.90
2018-09-10T02:59:21.104Z,99.90
2018-09-10T03:01:49.475Z,99.90
2018-09-10T03:04:17.822Z,99.90
2018-09-10T03:06:46.228Z,99.90
2018-09-10T03:09:14.634Z,99.90
2018-09-10T03:11:43.046Z,99.90
2018-09-10T03:14:11.509Z,99.90
2018-09-10T03:16:39.894Z,99.90
2018-09-10T03:19:08.309Z,99.90
2018-09-10T03:21:36.727Z,99.90
2018-09-10T03:24:06.129Z,99.90
2018-09-10T03:26:34.514Z,99.90
2018-09-10T03:29:02.960Z,99.90
2018-09-10T03:31:31.354Z,99.90
2018-09-10T03:33:59.791Z,99.90
2018-09-10T03:36:28.208Z,99.90
2018-09-10T03:38:56.614Z,99.90
2018-09-10T03:41:25.036Z,99.90
2018-09-10T03:43:53.494Z,99.90
2018-09-10T03:46:21.921Z,99.90
2018-09-10T03:48:50.356Z,99.90
2018-09-10T03:51:18.878Z,99.90
2018-09-10T03:53:47.252Z,99.90
2018-09-10T03:56:15.710Z,99.90
2018-09-10T03:58:44.100Z,99.90
2018-09-10T04:01:12.545Z,99.90
2018-09-10T04:03:41.083Z,99.90
2018-09-10T04:06:09.557Z,99.90
2018-09-10T04:08:38.016Z,99.90
2018-09-10T04:11:06.679Z,99.90
2018-09-10T04:13:35.106Z,99.90
2018-09-10T04:16:03.526Z,99.90
2018-09-10T04:18:31.936Z,99.90
2018-09-10T04:21:00.356Z,99.90
2018-09-10T04:23:28.738Z,99.90
2018-09-10T04:25:57.233Z,99.90
2018-09-10T04:28:25.557Z,99.90
2018-09-10T04:30:53.979Z,99.90
2018-09-10T04:33:22.430Z,99.90
2018-09-10T04:35:50.792Z,99.90
2018-09-10T04:38:19.148Z,99.90
2018-09-10T04:40:47.568Z,99.90
2018-09-10T04:43:15.933Z,99.90
2018-09-10T04:45:44.349Z,99.90
2018-09-10T04:48:12.753Z,99.90
2018-09-10T04:50:41.121Z,99.90
2018-09-10T04:53:09.465Z,99.90
2018-09-10T04:55:37.912Z,99.90
2018-09-10T04:58:07.142Z,99.90
2018-09-10T05:00:35.630Z,99.90
2018-09-10T05:03:04.122Z,99.90
2018-09-10T05:05:32.485Z,99.90
2018-09-10T05:08:00.857Z,99.90
2018-09-10T05:10:29.245Z,99.90
2018-09-10T05:12:57.609Z,99.90
2018-09-10T05:15:26.036Z,99.90
2018-09-10T05:17:54.439Z,99.90
2018-09-10T05:20:22.831Z,99.90
2018-09-10T05:22:51.201Z,99.90
2018-09-10T05:25:19.600Z,99.90
2018-09-10T05:27:48.019Z,99.90
2018-09-10T05:30:19.395Z,99.90
2018-09-10T05:32:47.945Z,99.90
2018-09-10T05:35:16.296Z,99.90
2018-09-10T05:37:44.976Z,99.90
2018-09-10T05:40:13.365Z,99.90
2018-09-10T05:42:41.783Z,99.90
2018-09-10T05:45:11.510Z,99.90
2018-09-10T05:47:40.361Z,99.90
2018-09-10T05:50:09.705Z,99.90
2018-09-10T05:52:38.145Z,99.90
2018-09-10T05:55:06.713Z,99.90
2018-09-10T05:57:35.090Z,99.90
2018-09-10T06:00:03.598Z,99.90
2018-09-10T06:02:32.020Z,99.90
2018-09-10T06:05:00.439Z,99.90
2018-09-10T06:07:28.861Z,99.90
2018-09-10T06:09:57.226Z,99.90
2018-09-10T06:12:25.604Z,99.90
2018-09-10T06:14:54.045Z,99.90
2018-09-10T06:17:22.388Z,99.90
2018-09-10T06:19:50.769Z,99.90
2018-09-10T06:22:19.261Z,99.90
2018-09-10T06:24:47.677Z,99.90
2018-09-10T06:27:16.223Z,99.90
2018-09-10T06:29:44.845Z,99.90
2018-09-10T06:32:13.313Z,99.90
2018-09-10T06:34:41.672Z,99.90
2018-09-10T06:37:10.065Z,99.90
2018-09-10T06:39:39.085Z,99.90
2018-09-10T06:42:07.546Z,99.90
2018-09-10T06:44:35.934Z,99.90
2018-09-10T06:47:04.318Z,99.90
2018-09-10T06:49:32.698Z,99.90
2018-09-10T06:52:01.112Z,99.90
2018-09-10T06:54:29.536Z,99.90
2018-09-10T06:56:57.916Z,99.90
2018-09-10T06:59:26.332Z,99.90
2018-09-10T07:01:54.788Z,99.90
2018-09-10T07:04:23.263Z,99.90
2018-09-10T07:06:51.660Z,99.90
2018-09-10T07:09:20.115Z,99.90
2018-09-10T07:11:48.579Z,99.90
2018-09-10T07:14:17.036Z,99.90
2018-09-10T07:16:45.480Z,99.90
2018-09-10T07:19:13.929Z,99.90
2018-09-10T07:21:42.288Z,99.90
2018-09-10T07:24:10.673Z,99.90
2018-09-10T07:26:39.667Z,99.90
2018-09-10T07:29:08.041Z,99.90
2018-09-10T07:31:36.453Z,99.90
2018-09-10T07:34:04.826Z,99.90
2018-09-10T07:36:33.238Z,99.90
2018-09-10T07:39:01.685Z,99.90
2018-09-10T07:41:30.060Z,99.90
2018-09-10T07:43:58.625Z,99.90
2018-09-10T07:46:26.890Z,99.90
2018-09-10T07:48:55.356Z,99.90
2018-09-10T07:51:23.796Z,99.90
2018-09-10T07:53:52.345Z,99.90
2018-09-10T07:56:20.801Z,99.90
2018-09-10T07:58:49.368Z,99.90
2018-09-10T08:01:17.765Z,99.90
2018-09-10T08:03:46.171Z,99.90
2018-09-10T08:06:14.612Z,99.90
2018-09-10T08:08:43.060Z,99.90
2018-09-10T08:11:11.450Z,99.90
2018-09-10T08:13:39.905Z,99.90
2018-09-10T08:16:08.454Z,99.90
2018-09-10T08:18:36.826Z,99.90
2018-09-10T08:21:06.288Z,99.90
2018-09-10T08:23:34.762Z,99.90
2018-09-10T08:26:03.130Z,99.90
2018-09-10T08:28:31.535Z,99.90
2018-09-10T08:30:59.948Z,99.90
2018-09-10T08:33:28.499Z,99.90
2018-09-10T08:35:57.060Z,99.90
2018-09-10T08:38:25.491Z,99.90
2018-09-10T08:40:53.973Z,99.90
2018-09-10T08:43:22.374Z,99.90
2018-09-10T08:45:50.880Z,99.90
2018-09-10T08:48:19.303Z,99.90
2018-09-10T08:50:47.666Z,99.90
2018-09-10T08:53:16.077Z,99.90
2018-09-10T08:55:44.580Z,99.90
2018-09-10T08:58:13.026Z,99.90
2018-09-10T09:00:41.397Z,99.90
2018-09-10T09:03:10.564Z,99.90
2018-09-10T09:05:38.990Z,99.90
2018-09-10T09:08:08.393Z,99.90
2018-09-10T09:10:36.757Z,99.90
2018-09-10T09:13:05.110Z,99.90
2018-09-10T09:15:33.505Z,99.90
2018-09-10T09:18:01.856Z,99.90
2018-09-10T09:20:30.248Z,99.90
2018-09-10T09:22:58.751Z,99.90
2018-09-10T09:25:27.153Z,99.90
2018-09-10T09:27:55.533Z,99.90
2018-09-10T09:30:24.105Z,99.90
2018-09-10T09:32:52.368Z,99.90
2018-09-10T09:35:25.045Z,99.90
2018-09-10T09:37:58.832Z,99.90
2018-09-10T09:40:32.436Z,99.90
2018-09-10T09:43:06.237Z,99.90
2018-09-10T09:45:39.845Z,99.90
2018-09-10T09:48:08.280Z,99.90
2018-09-10T09:50:36.709Z,99.90
2018-09-10T09:53:05.141Z,99.90
2018-09-10T09:55:33.584Z,99.90
2018-09-10T09:58:02.068Z,99.90
2018-09-10T10:00:35.827Z,99.90
2018-09-10T10:03:09.552Z,99.90
2018-09-10T10:05:38.049Z,99.90
2018-09-10T10:08:06.547Z,99.90
2018-09-10T10:10:35.025Z,99.90
2018-09-10T10:13:03.438Z,99.90
2018-09-10T10:15:31.849Z,99.90
2018-09-10T10:18:00.297Z,99.90
2018-09-10T10:20:28.702Z,99.90
2018-09-10T10:22:57.049Z,99.90
2018-09-10T10:25:25.440Z,99.90
2018-09-10T10:27:53.835Z,99.90
2018-09-10T10:30:22.278Z,99.90
2018-09-10T10:32:50.661Z,99.90
2018-09-10T10:35:19.077Z,99.90
2018-09-10T10:37:47.485Z,99.90
2018-09-10T10:40:15.868Z,99.90
2018-09-10T10:42:44.220Z,99.90
2018-09-10T10:45:13.586Z,99.90
2018-09-10T10:47:41.958Z,99.90
2018-09-10T10:50:10.361Z,99.90
2018-09-10T10:52:38.774Z,99.90
2018-09-10T10:55:07.229Z,99.90
2018-09-10T10:57:35.644Z,99.90
2018-09-10T11:00:04.178Z,99.90
2018-09-10T11:02:32.649Z,99.90
2018-09-10T11:05:01.021Z,99.90
2018-09-10T11:07:29.392Z,99.90
2018-09-10T11:09:57.818Z,99.90
2018-09-10T11:12:26.208Z,99.90
2018-09-10T11:14:54.584Z,99.90
2018-09-10T11:17:23.017Z,99.90
2018-09-10T11:19:51.433Z,99.90
2018-09-10T11:22:19.878Z,99.90
2018-09-10T11:24:48.296Z,99.90
2018-09-10T11:27:16.753Z,99.90
2018-09-10T11:29:45.166Z,99.90
2018-09-10T11:32:13.673Z,99.90
2018-09-10T11:34:42.327Z,99.90
2018-09-10T11:37:10.660Z,99.80
2018-09-10T11:39:39.150Z,99.90
2018-09-10T11:42:07.577Z,99.40
2018-09-10T11:44:35.995Z,99.10
2018-09-10T11:47:04.427Z,99.40
2018-09-10T11:49:32.825Z,99.20
2018-09-10T11:52:01.200Z,99.10
2018-09-10T11:54:29.648Z,99.10
2018-09-10T11:56:58.058Z,99.40
2018-09-10T11:59:26.697Z,99.70
2018-09-10T12:01:55.224Z,99.70
2018-09-10T12:04:23.585Z,99.70
2018-09-10T12:06:51.961Z,99.90
2018-09-10T12:09:20.409Z,99.90
2018-09-10T12:11:49.065Z,99.90
2018-09-10T12:14:17.433Z,99.20
2018-09-10T12:16:45.908Z,99.30
2018-09-10T12:19:14.257Z,99.20
2018-09-10T12:21:42.637Z,98.70
2018-09-10T12:24:11.071Z,98.70
2018-09-10T12:26:39.539Z,98.80
2018-09-10T12:29:07.886Z,99.00
2018-09-10T12:31:36.347Z,99.10
2018-09-10T12:34:04.729Z,99.00
2018-09-10T12:36:33.178Z,97.50
2018-09-10T12:39:01.556Z,97.70
2018-09-10T12:41:29.934Z,96.90
2018-09-10T12:43:58.489Z,96.80
2018-09-10T12:46:26.952Z,96.80
2018-09-10T12:48:55.276Z,96.80
2018-09-10T12:51:23.729Z,96.70
2018-09-10T12:53:52.125Z,97.30
2018-09-10T12:56:20.500Z,96.60
2018-09-10T12:58:49.377Z,96.30
2018-09-10T13:01:17.817Z,96.60
2018-09-10T13:03:46.188Z,96.50
2018-09-10T13:06:15.649Z,97.10
2018-09-10T13:08:44.116Z,97.40
2018-09-10T13:11:12.706Z,97.10
2018-09-10T13:13:41.109Z,97.30
2018-09-10T13:16:09.881Z,97.70
2018-09-10T13:18:38.302Z,97.60
2018-09-10T13:21:06.783Z,97.80
2018-09-10T13:23:35.169Z,98.00
2018-09-10T13:26:03.633Z,97.70
2018-09-10T13:28:32.008Z,98.00
2018-09-10T13:31:00.346Z,97.30
2018-09-10T13:33:28.792Z,97.40
2018-09-10T13:35:57.160Z,96.90
2018-09-10T13:38:25.525Z,96.50
2018-09-10T13:40:53.976Z,96.30
2018-09-10T13:43:22.370Z,96.50
2018-09-10T13:45:50.848Z,96.80
2018-09-10T13:48:19.687Z,96.90
2018-09-10T13:50:48.088Z,97.70
2018-09-10T13:53:16.533Z,96.90
2018-09-10T13:55:45.009Z,96.70
2018-09-10T13:58:13.403Z,96.90
2018-09-10T14:00:41.835Z,97.50
2018-09-10T14:03:10.265Z,97.80
2018-09-10T14:05:38.728Z,97.70
2018-09-10T14:08:07.400Z,98.00
2018-09-10T14:10:35.832Z,98.40
2018-09-10T14:13:04.227Z,98.80
2018-09-10T14:15:32.662Z,98.90
2018-09-10T14:18:01.090Z,98.80
2018-09-10T14:20:29.496Z,98.90
2018-09-10T14:22:57.917Z,99.20
2018-09-10T14:25:26.453Z,98.70
2018-09-10T14:27:54.897Z,98.80
2018-09-10T14:30:23.358Z,99.00
2018-09-10T14:32:51.807Z,99.00
2018-09-10T14:35:20.184Z,99.20
2018-09-10T14:37:48.585Z,99.30
2018-09-10T14:40:17.077Z,99.40
2018-09-10T14:42:45.500Z,99.40
2018-09-10T14:45:13.929Z,99.70
2018-09-10T14:47:42.367Z,99.90
2018-09-10T14:50:10.786Z,99.80
2018-09-10T14:52:39.169Z,99.90
2018-09-10T14:55:07.688Z,99.80
2018-09-10T14:57:36.163Z,99.90
2018-09-10T15:00:04.645Z,99.90
2018-09-10T15:02:33.054Z,99.90
2018-09-10T15:05:01.522Z,99.90
2018-09-10T15:07:29.967Z,99.90
2018-09-10T15:09:59.342Z,99.90
2018-09-10T15:12:27.876Z,99.90
2018-09-10T15:14:56.269Z,99.90
2018-09-10T15:17:24.904Z,99.90
2018-09-10T15:19:53.434Z,99.90
2018-09-10T15:22:23.941Z,99.90
2018-09-10T15:24:52.622Z,99.90
2018-09-10T15:27:21.263Z,99.90
2018-09-10T15:29:52.083Z,99.90
2018-09-10T15:32:20.644Z,99.90
2018-09-10T15:34:49.337Z,99.90
2018-09-10T15:37:20.713Z,99.90
2018-09-10T15:39:49.200Z,99.90
2018-09-10T15:42:17.636Z,99.90
2018-09-10T15:44:46.105Z,99.90
2018-09-10T15:47:14.545Z,99.90
2018-09-10T15:49:43.051Z,99.90
2018-09-10T15:52:12.928Z,99.90
2018-09-10T15:54:41.578Z,99.90
2018-09-10T15:57:10.041Z,99.90
2018-09-10T15:59:39.020Z,99.90
2018-09-10T16:02:07.946Z,99.90
2018-09-10T16:04:36.600Z,99.90
2018-09-10T16:07:05.316Z,99.90
2018-09-10T16:09:33.753Z,99.90
2018-09-10T16:12:02.177Z,99.90
2018-09-10T16:14:30.576Z,99.90
2018-09-10T16:16:59.078Z,99.90
2018-09-10T16:19:27.466Z,99.90
2018-09-10T16:21:55.880Z,99.90
2018-09-10T16:24:24.285Z,99.90
2018-09-10T16:26:52.742Z,99.90
2018-09-10T16:29:21.596Z,99.90
2018-09-10T16:31:49.969Z,99.90
2018-09-10T16:34:18.463Z,99.90
2018-09-10T16:36:46.901Z,99.90
2018-09-10T16:39:15.331Z,99.90
2018-09-10T16:41:43.771Z,99.90
2018-09-10T16:44:12.181Z,99.90
2018-09-10T16:46:40.535Z,99.90
2018-09-10T16:49:09.024Z,99.90
2018-09-10T16:51:37.466Z,99.90
2018-09-10T16:54:05.984Z,99.90
2018-09-10T16:56:34.551Z,99.90
2018-09-10T16:59:03.021Z,99.90
2018-09-10T17:01:31.428Z,99.90
2018-09-10T17:03:59.889Z,99.90
2018-09-10T17:06:28.468Z,99.90
2018-09-10T17:08:56.976Z,99.90
2018-09-10T17:11:25.409Z,99.90
2018-09-10T17:13:53.793Z,99.90
2018-09-10T17:16:22.197Z,99.90
2018-09-10T17:18:50.704Z,99.90
2018-09-10T17:21:19.070Z,99.90
2018-09-10T17:23:47.456Z,99.90
2018-09-10T17:26:15.884Z,99.90
2018-09-10T17:28:45.383Z,99.90
2018-09-10T17:31:13.857Z,99.90
2018-09-10T17:33:42.471Z,99.90
2018-09-10T17:36:11.061Z,99.90
2018-09-10T17:38:39.503Z,99.90
2018-09-10T17:41:09.004Z,99.90
2018-09-10T17:43:37.397Z,99.90
2018-09-10T17:46:05.911Z,99.90
2018-09-10T17:48:34.623Z,99.90
2018-09-10T17:51:03.045Z,99.90
2018-09-10T17:53:31.481Z,99.90
2018-09-10T17:55:59.908Z,99.90
2018-09-10T17:58:28.357Z,99.90
2018-09-10T18:00:56.809Z,99.90
2018-09-10T18:03:25.193Z,99.90
2018-09-10T18:05:53.664Z,99.90
2018-09-10T18:08:22.629Z,99.90
2018-09-10T18:10:51.012Z,99.90
2018-09-10T18:13:20.491Z,99.90
2018-09-10T18:15:48.829Z,99.90
2018-09-10T18:18:20.143Z,99.90
2018-09-10T18:20:48.728Z,99.90
2018-09-10T18:23:17.177Z,99.90
2018-09-10T18:25:45.737Z,99.90
2018-09-10T18:28:14.114Z,99.90
2018-09-10T18:30:42.575Z,99.90
2018-09-10T18:33:11.100Z,99.90
2018-09-10T18:35:39.494Z,99.90
2018-09-10T18:38:07.946Z,99.90
2018-09-10T18:40:36.364Z,99.90
2018-09-10T18:43:04.781Z,99.90
2018-09-10T18:45:33.169Z,99.90
2018-09-10T18:48:01.711Z,99.90
2018-09-10T18:50:30.050Z,99.90
2018-09-10T18:52:58.519Z,99.90
2018-09-10T18:55:26.965Z,99.90
2018-09-10T18:57:55.374Z,99.90
2018-09-10T19:00:23.757Z,99.90
2018-09-10T19:02:52.342Z,99.90
2018-09-10T19:05:20.737Z,99.90
2018-09-10T19:07:49.164Z,99.90
2018-09-10T19:10:17.668Z,99.90
2018-09-10T19:12:46.091Z,99.90
2018-09-10T19:15:14.645Z,99.90
2018-09-10T19:17:43.218Z,99.90
2018-09-10T19:20:11.723Z,99.90
2018-09-10T19:22:40.176Z,99.90
2018-09-10T19:25:08.729Z,99.90
2018-09-10T19:27:37.114Z,99.90
2018-09-10T19:30:05.909Z,99.90
2018-09-10T19:32:34.457Z,99.90
2018-09-10T19:35:02.881Z,99.90
2018-09-10T19:37:31.309Z,99.90
2018-09-10T19:39:59.729Z,99.90
2018-09-10T19:42:28.109Z,99.90
2018-09-10T19:44:56.500Z,99.90
2018-09-10T19:47:25.163Z,99.90
2018-09-10T19:49:54.554Z,99.90
2018-09-10T19:52:23.001Z,99.90
2018-09-10T19:54:51.429Z,99.90
2018-09-10T19:57:20.000Z,99.90
2018-09-10T19:59:48.375Z,99.90
2018-09-10T20:02:16.801Z,99.90
2018-09-10T20:04:45.209Z,99.90
2018-09-10T20:07:13.570Z,99.90
2018-09-10T20:09:42.049Z,99.90
2018-09-10T20:12:10.470Z,99.90
2018-09-10T20:14:38.833Z,99.90
2018-09-10T20:17:07.362Z,99.90
2018-09-10T20:19:35.873Z,99.90
2018-09-10T20:22:04.316Z,99.90
2018-09-10T20:24:32.729Z,99.90
2018-09-10T20:27:01.190Z,99.90
2018-09-10T20:29:29.573Z,99.90
2018-09-10T20:31:57.940Z,99.90
2018-09-10T20:34:26.369Z,99.90
2018-09-10T20:36:55.009Z,99.90
2018-09-10T20:39:23.393Z,99.90
2018-09-10T20:41:51.907Z,99.90
2018-09-10T20:47:01.363Z,99.90
2018-09-10T20:49:29.759Z,99.90
2018-09-10T20:51:58.145Z,99.90
2018-09-10T20:54:26.725Z,99.90
2018-09-10T21:01:55.558Z,99.90
2018-09-10T21:04:23.976Z,99.90
2018-09-10T21:06:52.419Z,99.90
2018-09-10T21:09:20.906Z,99.90
2018-09-10T21:11:49.323Z,99.90
2018-09-10T21:14:17.834Z,99.90
2018-09-10T21:16:46.353Z,99.90
2018-09-10T21:19:14.848Z,99.90
2018-09-10T21:21:43.248Z,99.90
2018-09-10T21:24:11.700Z,99.90
2018-09-10T21:26:40.049Z,99.90
2018-09-10T21:29:08.449Z,99.90
2018-09-10T21:31:36.862Z,99.90
2018-09-10T21:34:05.265Z,99.90
2018-09-10T21:36:33.613Z,99.90
2018-09-10T21:39:01.979Z,99.90
2018-09-10T21:41:30.569Z,99.90
2018-09-10T21:43:58.969Z,99.90
2018-09-10T21:46:27.347Z,99.90
2018-09-10T21:48:56.096Z,99.90
2018-09-10T21:51:24.460Z,99.90
2018-09-10T21:53:52.813Z,99.90
2018-09-10T21:56:21.230Z,99.90
2018-09-10T21:58:49.640Z,99.90
2018-09-10T22:01:18.140Z,99.90
2018-09-10T22:03:46.576Z,99.90
2018-09-10T22:06:14.988Z,99.90
2018-09-10T22:08:43.364Z,99.90
2018-09-10T22:11:11.822Z,99.90
2018-09-10T22:13:40.221Z,99.90
2018-09-10T22:16:08.649Z,99.90
2018-09-10T22:18:37.057Z,99.90
2018-09-10T22:21:05.697Z,99.90
2018-09-10T22:23:34.052Z,99.90
2018-09-10T22:26:02.452Z,99.90
2018-09-10T22:28:30.914Z,99.90
2018-09-10T22:30:59.307Z,99.90
2018-09-10T22:33:27.680Z,99.90
2018-09-10T22:35:56.901Z,99.90
2018-09-10T22:38:25.236Z,99.90
2018-09-10T22:40:53.576Z,99.90
2018-09-10T22:43:22.017Z,99.90
2018-09-10T22:45:50.380Z,99.90
2018-09-10T22:48:18.784Z,99.90
2018-09-10T22:50:47.200Z,99.90
2018-09-10T22:53:15.576Z,99.90
2018-09-10T22:55:43.941Z,99.90
2018-09-10T22:58:12.388Z,99.90
2018-09-10T23:00:40.821Z,99.90
2018-09-10T23:03:09.165Z,99.90
2018-09-10T23:05:37.601Z,99.90
2018-09-10T23:08:06.047Z,99.90
2018-09-10T23:10:34.437Z,99.90
2018-09-10T23:13:02.780Z,99.90
2018-09-10T23:15:31.196Z,99.90
2018-09-10T23:17:59.552Z,99.90
2018-09-10T23:20:28.077Z,99.90
2018-09-10T23:22:56.537Z,99.90
2018-09-10T23:25:24.960Z,99.90
2018-09-10T23:27:53.326Z,99.90
2018-09-10T23:30:21.778Z,99.90
2018-09-10T23:32:51.124Z,99.90
2018-09-10T23:35:19.477Z,99.90
2018-09-10T23:37:47.923Z,99.90
2018-09-10T23:40:16.280Z,99.90
2018-09-10T23:42:44.610Z,99.90
2018-09-10T23:45:13.118Z,99.90
2018-09-10T23:47:41.501Z,99.90
2018-09-10T23:50:09.946Z,99.90
2018-09-10T23:52:38.424Z,99.90
2018-09-10T23:55:06.888Z,99.90
2018-09-10T23:57:35.252Z,99.90
